createdAt,value
2023-05-14T00:00:03.636Z,7.1
2023-05-14T00:03:03.765Z,7.2
2023-05-14T00:06:03.653Z,8.1
2023-05-14T00:09:03.651Z,7.7
2023-05-14T00:12:03.647Z,7.5
2023-05-14T00:15:03.679Z,7.7
2023-05-14T00:18:03.704Z,8.1
2023-05-14T00:21:03.681Z,7.9
2023-05-14T00:24:03.680Z,7.6
2023-05-14T00:27:03.680Z,8.4
2023-05-14T00:30:03.689Z,8.1
2023-05-14T00:33:03.731Z,7.8
2023-05-14T00:36:03.692Z,7.9
2023-05-14T00:39:03.721Z,7.4
2023-05-14T00:42:03.723Z,8
2023-05-14T00:45:03.719Z,8.1
2023-05-14T00:48:03.747Z,8.3
2023-05-14T00:51:03.718Z,8.4
2023-05-14T00:54:03.724Z,8.1
2023-05-14T00:57:03.743Z,8.3
2023-05-14T01:00:03.735Z,7.8
2023-05-14T01:03:03.793Z,8.4
2023-05-14T01:06:03.741Z,8.3
2023-05-14T01:09:03.741Z,8.6
2023-05-14T01:12:03.744Z,8.6
2023-05-14T01:15:03.746Z,8
2023-05-14T01:18:03.816Z,8.3
2023-05-14T01:21:03.752Z,8.1
2023-05-14T01:24:03.763Z,8.1
2023-05-14T01:27:03.773Z,7.9
2023-05-14T01:30:03.889Z,7.9
2023-05-14T01:33:03.803Z,8
2023-05-14T01:36:03.769Z,8
2023-05-14T01:39:03.793Z,8.7
2023-05-14T01:42:03.791Z,8.7
2023-05-14T01:45:03.796Z,9.4
2023-05-14T01:48:03.922Z,10.2
2023-05-14T01:51:03.779Z,9.9
2023-05-14T01:54:03.803Z,9.3
2023-05-14T01:57:03.820Z,10.6
2023-05-14T02:00:03.809Z,11.4
2023-05-14T02:03:03.833Z,11
2023-05-14T02:06:03.812Z,11.8
2023-05-14T02:09:03.805Z,10.9
2023-05-14T02:12:03.824Z,10.1
2023-05-14T02:15:03.827Z,9.8
2023-05-14T02:18:03.921Z,9.5
2023-05-14T02:21:03.841Z,10.4
2023-05-14T02:24:03.838Z,11.2
2023-05-14T02:27:03.866Z,11.7
2023-05-14T02:30:03.863Z,11.5
2023-05-14T02:33:03.974Z,11.1
2023-05-14T02:36:03.843Z,11.4
2023-05-14T02:39:03.847Z,11.5
2023-05-14T02:42:03.876Z,10.6
2023-05-14T02:45:03.849Z,11.1
2023-05-14T02:48:03.890Z,12.1
2023-05-14T02:51:03.883Z,13
2023-05-14T02:54:03.859Z,13
2023-05-14T02:57:03.881Z,13.2
2023-05-14T03:00:03.875Z,13.3
2023-05-14T03:03:03.887Z,13.7
2023-05-14T03:06:03.883Z,12.8
2023-05-14T03:09:03.882Z,11.4
2023-05-14T03:12:03.891Z,12.5
2023-05-14T03:15:03.889Z,11.3
2023-05-14T03:18:03.894Z,11.3
2023-05-14T03:21:03.922Z,11.3
2023-05-14T03:24:03.887Z,11.2
2023-05-14T03:27:03.893Z,12.7
2023-05-14T03:30:03.911Z,13.5
2023-05-14T03:33:03.951Z,14.2
2023-05-14T03:36:03.913Z,12.4
2023-05-14T03:39:03.927Z,13.4
2023-05-14T03:42:03.939Z,13.8
2023-05-14T03:45:03.967Z,13.8
2023-05-14T03:48:04.044Z,13.2
2023-05-14T03:51:04.015Z,14.2
2023-05-14T03:54:03.982Z,14.3
2023-05-14T03:57:03.994Z,13.8
2023-05-14T04:00:03.997Z,12.4
2023-05-14T04:03:04.093Z,12.6
2023-05-14T04:06:04.014Z,13.6
2023-05-14T04:09:04.005Z,13.6
2023-05-14T04:12:04.019Z,13.6
2023-05-14T04:15:04.017Z,13
2023-05-14T04:18:04.083Z,13.2
2023-05-14T04:21:04.058Z,12.9
2023-05-14T04:24:04.045Z,12.7
2023-05-14T04:27:04.034Z,11.7
2023-05-14T04:30:04.033Z,12.4
2023-05-14T04:33:04.102Z,12.3
2023-05-14T04:36:04.171Z,11.9
2023-05-14T04:39:04.080Z,12.1
2023-05-14T04:42:04.060Z,11.6
2023-05-14T04:45:04.062Z,11.5
2023-05-14T04:48:04.116Z,10.8
2023-05-14T04:51:06.339Z,10.1
2023-05-14T04:54:04.109Z,10.6
2023-05-14T04:57:04.089Z,10.2
2023-05-14T05:00:04.089Z,9.6
2023-05-14T05:03:04.155Z,9.9
2023-05-14T05:06:04.100Z,9.5
2023-05-14T05:09:04.102Z,9.3
2023-05-14T05:12:04.140Z,9
2023-05-14T05:15:04.120Z,8.6
2023-05-14T05:18:04.151Z,8.7
2023-05-14T05:21:04.118Z,8.4
2023-05-14T05:24:04.122Z,8.6
2023-05-14T05:27:04.130Z,8.6
2023-05-14T05:30:04.140Z,8.1
2023-05-14T05:33:04.199Z,8.5
2023-05-14T05:36:04.146Z,8.3
2023-05-14T05:39:04.136Z,8.2
2023-05-14T05:42:04.149Z,8.3
2023-05-14T05:45:04.151Z,8.5
2023-05-14T05:48:04.269Z,8.4
2023-05-14T05:51:04.167Z,8.8
2023-05-14T05:54:04.157Z,8.7
2023-05-14T05:57:04.174Z,9.5
2023-05-14T06:00:04.176Z,9.5
2023-05-14T06:03:04.256Z,8.7
2023-05-14T06:06:04.171Z,8.8
2023-05-14T06:09:04.177Z,8.6
2023-05-14T06:12:04.191Z,8.2
2023-05-14T06:15:04.199Z,7.9
2023-05-14T06:18:04.219Z,8
2023-05-14T06:21:04.202Z,7.2
2023-05-14T06:24:04.201Z,7.3
2023-05-14T06:27:04.212Z,7.7
2023-05-14T06:33:04.250Z,8.4
2023-05-14T06:36:04.226Z,7.5
2023-05-14T06:39:04.234Z,7.5
2023-05-14T06:42:04.229Z,7.4
2023-05-14T06:45:04.237Z,6.8
2023-05-14T06:48:04.288Z,6.6
2023-05-14T06:51:04.246Z,6.7
2023-05-14T06:54:04.249Z,6.4
2023-05-14T06:57:04.299Z,6
2023-05-14T07:00:04.268Z,5.8
2023-05-14T07:03:04.271Z,5.8
2023-05-14T07:06:04.272Z,5.8
2023-05-14T07:09:04.282Z,5.6
2023-05-14T07:12:04.300Z,5.8
2023-05-14T07:15:04.285Z,5.6
2023-05-14T07:18:04.340Z,5.2
2023-05-14T07:21:04.294Z,5.3
2023-05-14T07:24:04.296Z,5.1
2023-05-14T07:27:04.312Z,5.1
2023-05-14T07:30:04.307Z,4.9
2023-05-14T07:33:04.469Z,4.9
2023-05-14T07:36:04.329Z,5.3
2023-05-14T07:39:04.331Z,5
2023-05-14T07:42:04.323Z,4.8
2023-05-14T07:45:04.333Z,4.5
2023-05-14T07:48:04.405Z,4.7
2023-05-14T07:51:04.337Z,4.7
2023-05-14T07:54:04.339Z,4.5
2023-05-14T07:57:04.348Z,4.9
2023-05-14T08:00:04.358Z,4.9
2023-05-14T08:03:04.465Z,5.1
2023-05-14T08:06:04.380Z,5
2023-05-14T08:09:04.385Z,5
2023-05-14T08:12:04.400Z,4.8
2023-05-14T08:15:04.381Z,5.2
2023-05-14T08:18:04.412Z,5.1
2023-05-14T08:21:04.398Z,5
2023-05-14T08:24:04.404Z,4.6
2023-05-14T08:27:04.404Z,4.5
2023-05-14T08:30:04.397Z,4.5
2023-05-14T08:33:04.422Z,4.4
2023-05-14T08:36:04.403Z,4.5
2023-05-14T08:39:04.425Z,4.3
2023-05-14T08:42:04.426Z,4.4
2023-05-14T08:45:04.416Z,4.4
2023-05-14T08:48:04.492Z,4.4
2023-05-14T08:51:04.424Z,4.6
2023-05-14T08:54:04.426Z,4.5
2023-05-14T08:57:04.444Z,4.4
2023-05-14T09:00:04.420Z,4.3
2023-05-14T09:03:04.482Z,4.3
2023-05-14T09:06:04.450Z,4.1
2023-05-14T09:09:04.440Z,3.7
2023-05-14T09:12:04.447Z,3.5
2023-05-14T09:15:04.458Z,3.5
2023-05-14T09:18:04.500Z,3.6
2023-05-14T09:21:04.455Z,3.3
2023-05-14T09:24:04.468Z,3.1
2023-05-14T09:27:04.479Z,3.2
2023-05-14T09:30:04.550Z,3.4
2023-05-14T09:33:04.493Z,3.4
2023-05-14T09:36:04.480Z,3.7
2023-05-14T09:39:04.473Z,3.7
2023-05-14T09:42:04.491Z,3.6
2023-05-14T09:45:04.494Z,3.8
2023-05-14T09:48:04.555Z,3.7
2023-05-14T09:51:04.896Z,3.9
2023-05-14T09:54:04.509Z,3.8
2023-05-14T09:57:04.501Z,3.7
2023-05-14T10:00:04.515Z,4
2023-05-14T10:03:04.584Z,3.6
2023-05-14T10:06:04.526Z,3.5
2023-05-14T10:09:04.536Z,3.5
2023-05-14T10:12:04.531Z,3.8
2023-05-14T10:15:04.532Z,3.9
2023-05-14T10:18:04.581Z,3.7
2023-05-14T10:21:04.540Z,3.8
2023-05-14T10:24:04.567Z,3.8
2023-05-14T10:27:04.549Z,3.7
2023-05-14T10:30:04.554Z,3.5
2023-05-14T10:33:04.573Z,3.8
2023-05-14T10:36:04.564Z,3.6
2023-05-14T10:39:04.565Z,3.5
2023-05-14T10:42:04.565Z,3.3
2023-05-14T10:45:04.573Z,3.7
2023-05-14T10:48:04.617Z,3.6
2023-05-14T10:51:04.595Z,3.4
2023-05-14T10:54:04.612Z,3.6
2023-05-14T10:57:04.606Z,3.6
2023-05-14T11:00:04.598Z,3.4
2023-05-14T11:03:04.608Z,3.6
2023-05-14T11:06:04.613Z,3.5
2023-05-14T11:09:04.629Z,3.7
2023-05-14T11:12:04.635Z,3.3
2023-05-14T11:15:04.627Z,3.4
2023-05-14T11:18:04.699Z,3.5
2023-05-14T11:21:04.654Z,3.4
2023-05-14T11:24:04.641Z,3.4
2023-05-14T11:27:04.652Z,3.1
2023-05-14T11:30:04.712Z,3.5
2023-05-14T11:33:04.705Z,3.1
2023-05-14T11:36:04.656Z,3.4
2023-05-14T11:39:04.662Z,3.8
2023-05-14T11:42:04.681Z,3.4
2023-05-14T11:45:04.697Z,3.4
2023-05-14T11:48:04.697Z,3.4
2023-05-14T11:51:04.672Z,2.9
2023-05-14T11:54:04.681Z,3
2023-05-14T11:57:04.682Z,2.8
2023-05-14T12:00:04.685Z,2.8
2023-05-14T12:03:04.773Z,2.7
2023-05-14T12:06:04.699Z,2.7
2023-05-14T12:09:04.732Z,2.8
2023-05-14T12:12:04.701Z,3
2023-05-14T12:15:04.718Z,3.3
2023-05-14T12:18:10.994Z,3.1
2023-05-14T12:21:04.735Z,3.4
2023-05-14T12:24:04.733Z,3.3
2023-05-14T12:27:04.769Z,3.1
2023-05-14T12:30:19.712Z,3.1
2023-05-14T12:33:04.769Z,3.3
2023-05-14T12:36:20.229Z,3.2
2023-05-14T12:39:04.747Z,3.3
2023-05-14T12:42:04.766Z,3.2
2023-05-14T12:45:04.765Z,3.3
2023-05-14T12:48:04.806Z,3.2
2023-05-14T12:51:04.761Z,3.4
2023-05-14T12:54:04.777Z,3.4
2023-05-14T12:57:04.791Z,3.2
2023-05-14T13:00:04.782Z,3.3
2023-05-14T13:03:04.830Z,3.2
2023-05-14T13:06:04.813Z,3
2023-05-14T13:09:04.795Z,3.1
2023-05-14T13:12:04.792Z,3.1
2023-05-14T13:15:04.805Z,3
2023-05-14T13:18:04.849Z,2.9
2023-05-14T13:21:04.817Z,2.8
2023-05-14T13:24:04.805Z,2.9
2023-05-14T13:27:04.821Z,2.9
2023-05-14T13:30:04.826Z,2.9
2023-05-14T13:33:04.845Z,3
2023-05-14T13:36:04.828Z,2.9
2023-05-14T13:39:04.841Z,3.1
2023-05-14T13:42:04.832Z,2.8
2023-05-14T13:45:04.843Z,2.8
2023-05-14T13:48:04.881Z,2.8
2023-05-14T13:51:04.856Z,2.8
2023-05-14T13:54:04.881Z,2.8
2023-05-14T13:57:04.862Z,2.7
2023-05-14T14:00:04.903Z,2.6
2023-05-14T14:03:04.916Z,2.6
2023-05-14T14:06:04.896Z,2.7
2023-05-14T14:09:04.905Z,3
2023-05-14T14:12:04.959Z,3.4
2023-05-14T14:15:04.888Z,2.8
2023-05-14T14:18:04.917Z,3
2023-05-14T14:21:04.927Z,2.8
2023-05-14T14:24:04.906Z,2.8
2023-05-14T14:27:04.925Z,2.7
2023-05-14T14:30:04.908Z,2.6
2023-05-14T14:33:04.935Z,2.6
2023-05-14T14:36:04.962Z,2.9
2023-05-14T14:39:04.933Z,2.9
2023-05-14T14:42:04.922Z,2.6
2023-05-14T14:45:04.927Z,2.6
2023-05-14T14:48:04.978Z,2.5
2023-05-14T14:51:04.935Z,2.7
2023-05-14T14:54:04.946Z,2.5
2023-05-14T14:57:04.959Z,2.7
2023-05-14T15:00:05.088Z,2.7
2023-05-14T15:03:05.019Z,2.5
2023-05-14T15:06:05.010Z,2.7
2023-05-14T15:09:04.970Z,2.8
2023-05-14T15:12:04.989Z,2.8
2023-05-14T15:15:04.985Z,2.7
2023-05-14T15:18:05.046Z,2.6
2023-05-14T15:21:04.992Z,2.6
2023-05-14T15:24:04.995Z,2.9
2023-05-14T15:27:05.034Z,2.7
2023-05-14T15:30:05.132Z,2.9
2023-05-14T15:33:05.122Z,2.8
2023-05-14T15:36:05.001Z,2.8
2023-05-14T15:39:04.998Z,2.9
2023-05-14T15:42:05.012Z,3.2
2023-05-14T15:45:05.010Z,2.9
2023-05-14T15:48:05.028Z,3
2023-05-14T15:51:05.020Z,2.9
2023-05-14T15:54:05.033Z,2.9
2023-05-14T15:57:05.038Z,3
2023-05-14T16:00:05.034Z,2.8
2023-05-14T16:03:05.106Z,3
2023-05-14T16:06:05.058Z,2.9
2023-05-14T16:09:05.049Z,3
2023-05-14T16:12:05.072Z,3.6
2023-05-14T16:15:05.056Z,3.2
2023-05-14T16:18:05.082Z,3.1
2023-05-14T16:21:05.061Z,3.1
2023-05-14T16:24:05.127Z,3.1
2023-05-14T16:27:05.067Z,3
2023-05-14T16:30:05.088Z,2.9
2023-05-14T16:33:05.091Z,3
2023-05-14T16:36:05.076Z,2.9
2023-05-14T16:39:07.621Z,3.2
2023-05-14T16:42:05.116Z,2.8
2023-05-14T16:45:05.091Z,2.8
2023-05-14T16:48:05.135Z,2.7
2023-05-14T16:51:05.081Z,3.1
2023-05-14T16:54:05.090Z,3
2023-05-14T16:57:05.112Z,3.1
2023-05-14T17:00:05.100Z,3.2
2023-05-14T17:03:05.123Z,3
2023-05-14T17:06:05.098Z,3
2023-05-14T17:09:05.101Z,3
2023-05-14T17:12:05.123Z,2.9
2023-05-14T17:15:05.550Z,3.1
2023-05-14T17:18:05.183Z,3
2023-05-14T17:21:05.113Z,3.1
2023-05-14T17:24:05.132Z,3.2
2023-05-14T17:27:05.122Z,3.1
2023-05-14T17:30:05.125Z,3.6
2023-05-14T17:33:05.173Z,3.3
2023-05-14T17:36:05.146Z,3
2023-05-14T17:39:05.140Z,3.5
2023-05-14T17:42:05.144Z,3.7
2023-05-14T17:45:05.160Z,3.4
2023-05-14T17:48:05.201Z,3.4
2023-05-14T17:51:05.188Z,3.6
2023-05-14T17:54:05.172Z,4.2
2023-05-14T17:57:05.172Z,3.7
2023-05-14T18:00:05.167Z,3.6
2023-05-14T18:03:05.251Z,3.5
2023-05-14T18:06:05.189Z,3.3
2023-05-14T18:09:05.190Z,3.5
2023-05-14T18:12:05.202Z,3.5
2023-05-14T18:15:05.208Z,3.2
2023-05-14T18:18:05.237Z,3.6
2023-05-14T18:21:05.230Z,3.4
2023-05-14T18:24:05.253Z,3.4
2023-05-14T18:27:05.273Z,3.4
2023-05-14T18:30:05.287Z,3.4
2023-05-14T18:33:05.320Z,3.6
2023-05-14T18:36:05.291Z,3.3
2023-05-14T18:39:05.302Z,3.5
2023-05-14T18:42:05.326Z,3.4
2023-05-14T18:45:05.319Z,3.3
2023-05-14T18:48:05.350Z,3.6
2023-05-14T18:51:05.339Z,3.7
2023-05-14T18:54:05.325Z,3.7
2023-05-14T18:57:05.406Z,3.6
2023-05-14T19:00:05.369Z,3.6
2023-05-14T19:03:05.436Z,3.4
2023-05-14T19:06:05.372Z,4
2023-05-14T19:09:05.372Z,3.6
2023-05-14T19:12:05.362Z,4.2
2023-05-14T19:15:05.363Z,4
2023-05-14T19:18:05.417Z,3.8
2023-05-14T19:21:05.367Z,3.8
2023-05-14T19:24:05.364Z,3.7
2023-05-14T19:27:05.381Z,4.1
2023-05-14T19:30:05.392Z,3.9
2023-05-14T19:33:05.389Z,4.2
2023-05-14T19:36:05.388Z,4
2023-05-14T19:39:05.394Z,3.8
2023-05-14T19:42:05.384Z,4
2023-05-14T19:45:05.411Z,4
2023-05-14T19:48:05.466Z,4.1
2023-05-14T19:51:05.400Z,4
2023-05-14T19:54:05.413Z,3.9
2023-05-14T19:57:05.405Z,4
2023-05-14T20:00:05.410Z,4
2023-05-14T20:03:05.672Z,3.8
2023-05-14T20:06:05.407Z,3.8
2023-05-14T20:09:05.435Z,4.1
2023-05-14T20:12:05.421Z,3.9
2023-05-14T20:15:05.425Z,3.9
2023-05-14T20:18:05.443Z,4.1
2023-05-14T20:21:05.427Z,3.8
2023-05-14T20:24:05.442Z,4.2
2023-05-14T20:27:05.432Z,4
2023-05-14T20:30:05.437Z,4
2023-05-14T20:33:05.456Z,4.5
2023-05-14T20:36:05.435Z,3.8
2023-05-14T20:39:05.450Z,4.1
2023-05-14T20:42:05.450Z,4.2
2023-05-14T20:45:05.458Z,3.9
2023-05-14T20:48:05.469Z,3.9
2023-05-14T20:51:05.456Z,4.2
2023-05-14T20:54:05.468Z,4.3
2023-05-14T20:57:05.474Z,4.2
2023-05-14T21:00:05.452Z,4.2
2023-05-14T21:03:05.561Z,4.6
2023-05-14T21:06:05.518Z,4.6
2023-05-14T21:09:05.470Z,4.2
2023-05-14T21:12:05.462Z,4.4
2023-05-14T21:15:05.487Z,4.7
2023-05-14T21:18:05.493Z,4.4
2023-05-14T21:21:05.467Z,4.4
2023-05-14T21:24:05.458Z,4.6
2023-05-14T21:27:05.463Z,4.2
2023-05-14T21:30:05.471Z,4.3
2023-05-14T21:33:05.475Z,4.5
2023-05-14T21:36:05.467Z,4.4
2023-05-14T21:39:05.481Z,4.2
2023-05-14T21:42:05.470Z,4.7
2023-05-14T21:45:05.482Z,4.6
2023-05-14T21:48:05.522Z,4.8
2023-05-14T21:51:05.484Z,4.7
2023-05-14T21:54:05.472Z,4.8
2023-05-14T21:57:05.477Z,5
2023-05-14T22:00:05.508Z,4.5
2023-05-14T22:03:05.603Z,4.4
2023-05-14T22:06:05.477Z,4.7
2023-05-14T22:09:05.488Z,5
2023-05-14T22:12:05.489Z,4.4
2023-05-14T22:15:05.484Z,4.3
2023-05-14T22:18:05.520Z,4.6
2023-05-14T22:21:05.483Z,4.3
2023-05-14T22:24:05.479Z,4.3
2023-05-14T22:27:05.480Z,4.4
2023-05-14T22:30:05.482Z,4.6
2023-05-14T22:33:05.504Z,4.4
2023-05-14T22:36:05.480Z,4.4
2023-05-14T22:39:05.485Z,4.5
2023-05-14T22:42:05.484Z,5
2023-05-14T22:45:05.487Z,4.8
2023-05-14T22:48:05.530Z,4.9
2023-05-14T22:51:05.494Z,5
2023-05-14T22:54:05.488Z,5
2023-05-14T22:57:05.498Z,4.9
2023-05-14T23:00:05.500Z,5.2
2023-05-14T23:03:05.526Z,4.9
2023-05-14T23:06:05.495Z,5
2023-05-14T23:09:05.515Z,5.1
2023-05-14T23:12:05.513Z,5
2023-05-14T23:15:05.499Z,5.1
2023-05-14T23:18:05.588Z,5.4
2023-05-14T23:21:05.506Z,5.3
2023-05-14T23:24:05.509Z,5.3
2023-05-14T23:27:05.513Z,5.2
2023-05-14T23:30:05.518Z,5.6
2023-05-14T23:33:05.551Z,5.6
2023-05-14T23:36:05.522Z,5.6
2023-05-14T23:39:05.522Z,5.6
2023-05-14T23:42:05.518Z,5.6
2023-05-14T23:45:05.513Z,5.7
2023-05-14T23:48:05.576Z,5.5
2023-05-14T23:51:05.518Z,5.7
2023-05-14T23:54:05.516Z,5.7
2023-05-14T23:57:05.514Z,5.8
